Sunday, December 17, 2017, 4:24 PM EST
Back to Local

KHYA, Hyannis Barnstable Boardmn

Location: West Yarmouth, MA, United States Lat: 41.667
Local Time: 4:24 PM EST (21:24 GMT) Lon: -70.267
Time Zone: US/Eastern Elev: 52 ft

Show me the last for .
Show Coded

Time T Td Feel RH Dir Speed Gust Alt SLP Vis Weather Sky Remarks
2017-12-17 14:56 29 5 24 35 310° 5 - 30.20 30.20 10 CLR None
2017-12-17 13:56 29 4 24 33 330° 5 - 30.20 30.21 10 CLR None
2017-12-17 12:56 29 7 20 38 330° 10 - 30.21 30.21 10 CLR 6-hr Min Temp (1pm): 19.9°F
6-hr Max Temp (1pm): 30.0°F
2017-12-17 11:56 29 9 21 42 330° 8 - 30.23 30.23 10 CLR None
2017-12-17 10:56 28 11 19 48 330° 9 - 30.23 30.24 10 CLR None
2017-12-17 09:56 27 10 14 48 330° 9 18 30.24 30.25 10 CLR None
2017-12-17 08:56 24 10 15 54 300° 8 - 30.24 30.25 10 CLR None
2017-12-17 07:56 21 7 13 53 300° 6 - 30.24 30.24 10 CLR None
2017-12-17 06:56 20 6 11 54 300° 7 - 30.24 30.24 10 CLR 6-hr Min Temp (7am): 19.0°F
6-hr Max Temp (7am): 26.1°F
2017-12-17 05:56 20 9 10 61 280° 8 - 30.24 30.25 10 CLR None
2017-12-17 04:56 21 10 13 61 300° 6 - 30.21 30.21 10 CLR None
2017-12-17 03:56 22 12 14 65 280° 6 - 30.18 30.19 10 CLR None
2017-12-17 02:56 24 11 17 56 300° 6 - 30.18 30.18 10 CLR None
2017-12-17 01:56 24 12 16 59 290° 7 - 30.17 30.17 10 CLR None
2017-12-17 00:56 26 13 18 56 290° 8 - 30.15 30.15 10 CLR 6-hr Min Temp (1am): 25.0°F
6-hr Max Temp (1am): 30.0°F
2017-12-16 23:56 26 14 18 59 300° 7 - 30.14 30.14 10 CLR 24-hr Min Temp (12am): 21.0°F
24-hr Max Temp (12am): 34.0°F
2017-12-16 22:56 27 15 19 60 280° 7 - 30.13 30.13 10 CLR None
2017-12-16 21:56 28 16 20 60 300° 8 - 30.11 30.11 10 CLR None
2017-12-16 20:56 28 17 20 62 280° 8 - 30.09 30.09 10 CLR None
2017-12-16 19:56 29 17 21 60 290° 8 - 30.06 30.06 10 CLR None
2017-12-16 18:56 30 17 22 58 300° 8 - 30.03 30.04 10 FEW085 6-hr Min Temp (7pm): 28.9°F
6-hr Max Temp (7pm): 34.0°F
2017-12-16 17:56 30 17 25 58 270° 5 - 30.00 30.00 10 CLR None
2017-12-16 16:56 31 16 24 53 300° 7 - 29.96 29.96 10 OVC110 None

Support USWX by starting your Amazon purchase here.